Time;durP1;ratioP1;P1;durP2;ratioP2;P2;SDS_P1;SDS_P2;PMS_P1;PMS_P2;Temp;Humidity;BMP_temperature;BMP_pressure;BME280_temperature;BME280_humidity;BME280_pressure;Samples;Min_cycle;Max_cycle;Signal;HPM_P1;HPM_P2
2021/06/19 00:01:28;;;;;;;11.73;6.22;;;18.00;99.90;;;;;;5094649;28;20382;-81
2021/06/19 00:03:53;;;;;;;10.77;5.93;;;18.00;99.90;;;;;;5094289;28;20027;-80
2021/06/19 00:06:19;;;;;;;14.93;6.03;;;18.00;99.90;;;;;;5094392;28;20032;-80
2021/06/19 00:08:44;;;;;;;11.52;5.68;;;18.00;99.90;;;;;;5094047;28;20059;-81
2021/06/19 00:11:10;;;;;;;12.77;6.07;;;18.00;99.90;;;;;;5094240;28;20409;-81
2021/06/19 00:13:36;;;;;;;12.95;6.22;;;18.00;99.90;;;;;;5091641;28;20482;-81
2021/06/19 00:16:02;;;;;;;13.00;6.45;;;18.10;99.90;;;;;;5093785;28;20034;-81
2021/06/19 00:18:27;;;;;;;19.80;6.10;;;18.10;99.90;;;;;;5093191;28;20383;-80
2021/06/19 00:20:54;;;;;;;13.13;6.20;;;18.10;99.90;;;;;;5094077;28;20031;-80
2021/06/19 00:23:20;;;;;;;18.85;6.75;;;18.10;99.90;;;;;;5094003;28;20107;-80
2021/06/19 00:25:46;;;;;;;14.10;6.05;;;18.10;99.90;;;;;;5093705;28;20063;-81
2021/06/19 00:28:12;;;;;;;10.68;5.68;;;18.10;99.90;;;;;;5093624;28;20072;-81
2021/06/19 00:30:38;;;;;;;12.60;6.35;;;18.10;99.90;;;;;;5093544;28;20024;-80
2021/06/19 00:33:03;;;;;;;15.05;5.93;;;18.10;99.90;;;;;;5093383;28;20549;-81
2021/06/19 00:35:29;;;;;;;14.52;5.72;;;18.10;99.90;;;;;;5093555;28;20137;-80
2021/06/19 00:37:55;;;;;;;11.25;5.75;;;18.10;99.90;;;;;;5090893;28;20111;-80
2021/06/19 00:40:21;;;;;;;14.43;6.18;;;18.10;99.90;;;;;;5092157;28;20028;-80
2021/06/19 00:42:56;;;;;;;14.50;6.38;;;18.10;99.90;;;;;;5093640;28;20028;-81
2021/06/19 00:45:24;;;;;;;13.48;6.50;;;18.10;99.90;;;;;;5093090;28;20024;-80
2021/06/19 00:47:49;;;;;;;12.02;6.45;;;18.10;99.90;;;;;;5093402;28;20409;-80
2021/06/19 00:50:16;;;;;;;12.20;6.65;;;18.10;99.90;;;;;;5093118;28;20078;-81
2021/06/19 00:52:42;;;;;;;15.30;5.70;;;18.10;99.90;;;;;;5093599;28;20024;-81
2021/06/19 00:55:08;;;;;;;15.32;6.28;;;18.10;99.90;;;;;;5091963;28;20440;-80
2021/06/19 00:57:34;;;;;;;19.08;6.40;;;18.10;99.90;;;;;;5092595;28;20016;-80
2021/06/19 01:00:00;;;;;;;16.10;5.90;;;18.10;99.90;;;;;;5092830;28;20028;-80
2021/06/19 01:02:26;;;;;;;12.13;5.75;;;18.10;99.90;;;;;;5093688;28;20016;-81
2021/06/19 01:04:52;;;;;;;12.40;6.20;;;18.10;99.90;;;;;;5091861;28;20489;-80
2021/06/19 01:07:18;;;;;;;12.45;5.80;;;18.10;99.90;;;;;;5093243;28;20020;-80
2021/06/19 01:09:43;;;;;;;10.95;5.38;;;18.10;99.90;;;;;;5091410;28;20081;-81
2021/06/19 01:12:09;;;;;;;12.35;5.55;;;18.10;99.90;;;;;;5093109;28;20032;-80
2021/06/19 01:14:35;;;;;;;14.55;5.50;;;18.20;99.90;;;;;;5091758;28;20024;-80
2021/06/19 01:17:01;;;;;;;12.55;5.97;;;18.20;99.90;;;;;;5092502;28;20478;-80
2021/06/19 01:19:27;;;;;;;17.10;5.88;;;18.20;99.90;;;;;;5092670;28;20031;-80
2021/06/19 01:21:54;;;;;;;12.45;5.75;;;18.20;99.90;;;;;;5093243;28;20040;-81
2021/06/19 01:24:24;;;;;;;15.43;5.88;;;18.30;99.90;;;;;;5092961;28;20047;-81
2021/06/19 01:26:51;;;;;;;13.40;6.45;;;18.30;99.90;;;;;;5092780;28;20036;-80
2021/06/19 01:29:18;;;;;;;16.95;7.07;;;18.20;99.90;;;;;;5092569;28;20028;-80
2021/06/19 01:31:44;;;;;;;15.02;6.75;;;18.20;99.90;;;;;;5092308;28;20044;-80
2021/06/19 01:34:09;;;;;;;11.40;6.68;;;18.10;99.90;;;;;;5092557;28;20473;-80
2021/06/19 01:36:35;;;;;;;11.57;6.88;;;18.10;99.90;;;;;;5092909;28;20026;-81
2021/06/19 01:39:01;;;;;;;24.10;7.60;;;18.10;99.90;;;;;;5091133;28;20020;-80
2021/06/19 01:41:31;;;;;;;17.42;7.28;;;18.10;99.90;;;;;;5092211;28;20391;-80
2021/06/19 01:44:03;;;;;;;15.65;7.55;;;18.10;99.90;;;;;;5092252;28;20386;-80
2021/06/19 01:46:30;;;;;;;11.30;7.15;;;18.10;99.90;;;;;;5092344;28;20024;-81
2021/06/19 01:48:55;;;;;;;15.13;7.55;;;18.00;99.90;;;;;;5092124;28;20028;-80
2021/06/19 01:51:21;;;;;;;18.60;8.27;;;18.00;99.90;;;;;;5092301;28;20447;-81
2021/06/19 01:53:47;;;;;;;14.18;8.32;;;18.00;99.90;;;;;;5092607;28;20548;-81
2021/06/19 01:56:14;;;;;;;15.40;8.15;;;18.00;99.90;;;;;;5092341;28;20020;-81
2021/06/19 01:58:40;;;;;;;13.57;8.38;;;18.00;99.90;;;;;;5092360;28;20533;-81
2021/06/19 02:01:07;;;;;;;17.83;7.78;;;18.00;99.90;;;;;;5092189;28;20020;-80
2021/06/19 02:03:33;;;;;;;16.98;7.63;;;18.10;99.90;;;;;;5092508;28;20509;-80
2021/06/19 02:05:59;;;;;;;20.73;8.38;;;18.10;99.90;;;;;;5091146;28;20024;-80
2021/06/19 02:08:25;;;;;;;19.55;10.23;;;18.10;99.90;;;;;;5097370;28;20103;-80
2021/06/19 02:10:52;;;;;;;22.92;10.52;;;18.00;99.90;;;;;;5106218;28;20482;-79
2021/06/19 02:13:18;;;;;;;14.55;11.15;;;18.00;99.90;;;;;;5093738;28;20059;-80
2021/06/19 02:15:46;;;;;;;29.60;13.68;;;18.00;99.90;;;;;;5091965;28;20363;-81
2021/06/19 02:18:13;;;;;;;26.38;14.25;;;17.90;99.90;;;;;;5091771;28;20024;-82
2021/06/19 02:20:38;;;;;;;21.20;12.80;;;17.80;99.90;;;;;;5098430;28;20386;-80
2021/06/19 02:23:05;;;;;;;31.13;15.07;;;17.80;99.90;;;;;;5092125;28;20108;-79
2021/06/19 02:25:31;;;;;;;27.17;15.13;;;17.80;99.90;;;;;;5092211;28;20074;-79
2021/06/19 02:28:00;;;;;;;22.63;14.20;;;17.80;99.90;;;;;;5092017;28;20035;-83
2021/06/19 02:30:29;;;;;;;26.25;16.38;;;17.70;99.90;;;;;;5092029;28;20017;-83
2021/06/19 02:32:56;;;;;;;25.65;17.48;;;17.70;99.90;;;;;;5091799;28;20052;-83
2021/06/19 02:35:24;;;;;;;37.55;20.77;;;17.60;99.90;;;;;;5090753;28;20021;-79
2021/06/19 02:37:50;;;;;;;29.65;18.25;;;17.60;99.90;;;;;;5090968;28;20021;-79
2021/06/19 02:40:16;;;;;;;41.28;19.05;;;17.60;99.90;;;;;;5090257;28;20028;-79
2021/06/19 02:42:42;;;;;;;31.40;18.92;;;17.50;99.90;;;;;;5091993;28;20035;-80
2021/06/19 02:45:12;;;;;;;42.05;19.17;;;17.50;99.90;;;;;;5091928;28;20454;-83
2021/06/19 02:47:43;;;;;;;33.28;17.67;;;17.50;99.90;;;;;;5091835;28;20032;-80
2021/06/19 02:50:11;;;;;;;40.35;19.55;;;17.50;99.90;;;;;;5091978;28;20505;-79
2021/06/19 02:52:41;;;;;;;47.33;20.80;;;17.50;99.90;;;;;;5092977;28;20069;-80
2021/06/19 02:55:11;;;;;;;34.63;19.85;;;17.50;99.90;;;;;;5095602;28;20221;-83
2021/06/19 02:57:38;;;;;;;29.45;18.73;;;17.50;99.90;;;;;;5094569;28;20028;-83
2021/06/19 03:00:05;;;;;;;43.30;18.48;;;17.50;99.90;;;;;;5095463;28;20017;-79
2021/06/19 03:02:31;;;;;;;33.83;19.42;;;17.60;99.90;;;;;;5095693;28;20030;-83
2021/06/19 03:04:57;;;;;;;37.72;19.13;;;17.60;99.90;;;;;;5095071;28;20020;-79
2021/06/19 03:07:23;;;;;;;34.38;18.38;;;17.60;99.90;;;;;;5095493;28;20035;-79
2021/06/19 03:09:48;;;;;;;35.47;17.75;;;17.60;99.90;;;;;;5095522;28;20024;-80
2021/06/19 03:12:14;;;;;;;34.85;18.20;;;17.60;99.90;;;;;;5094178;28;20035;-82
2021/06/19 03:14:40;;;;;;;37.08;18.48;;;17.60;99.90;;;;;;5094367;28;20024;-80
2021/06/19 03:17:06;;;;;;;37.70;16.98;;;17.50;99.90;;;;;;5093332;28;20437;-80
2021/06/19 03:19:32;;;;;;;33.72;17.00;;;17.50;99.90;;;;;;5094988;28;20545;-79
2021/06/19 03:22:01;;;;;;;30.58;17.27;;;17.50;99.90;;;;;;5095343;28;20028;-82
2021/06/19 03:24:27;;;;;;;32.15;17.52;;;17.50;99.90;;;;;;5095035;28;20024;-82
2021/06/19 03:26:54;;;;;;;32.55;16.90;;;17.60;99.90;;;;;;5095024;28;20028;-79
2021/06/19 03:29:20;;;;;;;35.88;17.60;;;17.60;99.90;;;;;;5094243;28;20024;-82
2021/06/19 03:31:46;;;;;;;28.85;17.17;;;17.60;99.90;;;;;;5094809;28;20099;-82
2021/06/19 03:34:12;;;;;;;41.50;18.65;;;17.60;99.90;;;;;;5094576;28;20506;-82
2021/06/19 03:36:37;;;;;;;39.20;17.85;;;17.60;99.90;;;;;;5095134;28;20028;-80
2021/06/19 03:39:04;;;;;;;39.20;18.25;;;17.60;99.90;;;;;;5093792;28;20080;-82
2021/06/19 03:41:29;;;;;;;30.65;18.48;;;17.60;99.90;;;;;;5093182;28;20031;-79
2021/06/19 03:43:55;;;;;;;35.85;19.23;;;17.50;99.90;;;;;;5094598;28;20024;-82
2021/06/19 03:46:21;;;;;;;32.17;18.42;;;17.50;99.90;;;;;;5094516;28;20482;-82
2021/06/19 03:48:46;;;;;;;31.75;17.23;;;17.50;99.90;;;;;;5094491;28;20513;-79
2021/06/19 03:51:12;;;;;;;39.13;16.17;;;17.50;99.90;;;;;;5094399;28;20020;-79
2021/06/19 03:53:38;;;;;;;26.48;17.02;;;17.50;99.90;;;;;;5093291;28;20394;-80
2021/06/19 03:56:04;;;;;;;25.35;17.05;;;17.50;99.90;;;;;;5094254;28;20051;-79
2021/06/19 03:58:30;;;;;;;32.65;16.92;;;17.50;99.90;;;;;;5094436;28;20024;-82
2021/06/19 04:00:56;;;;;;;32.97;17.90;;;17.50;99.90;;;;;;5094589;28;20069;-79
2021/06/19 04:03:21;;;;;;;26.83;18.77;;;17.50;99.90;;;;;;5094121;28;20032;-83
2021/06/19 04:05:47;;;;;;;30.67;17.75;;;17.50;99.90;;;;;;5094079;28;20103;-80
2021/06/19 04:08:13;;;;;;;29.27;18.25;;;17.50;99.90;;;;;;5092779;28;20024;-80
2021/06/19 04:10:38;;;;;;;30.83;18.95;;;17.50;99.90;;;;;;5092959;28;20058;-80
2021/06/19 04:13:05;;;;;;;35.00;19.17;;;17.50;99.90;;;;;;5093806;28;20023;-83
2021/06/19 04:15:30;;;;;;;35.20;18.75;;;17.40;99.90;;;;;;5093716;28;20443;-80
2021/06/19 04:17:56;;;;;;;37.78;19.67;;;17.40;99.90;;;;;;5093659;28;20051;-80
2021/06/19 04:20:24;;;;;;;39.40;18.95;;;17.40;99.90;;;;;;5093906;28;20441;-82
2021/06/19 04:22:49;;;;;;;38.55;20.30;;;17.40;99.90;;;;;;5094069;28;20032;-82
2021/06/19 04:25:17;;;;;;;38.75;19.98;;;17.40;99.90;;;;;;5093994;28;20077;-80
2021/06/19 04:27:50;;;;;;;37.45;19.98;;;17.40;99.90;;;;;;5093281;28;20032;-80
2021/06/19 04:30:16;;;;;;;;;;;17.40;99.90;;;;;;5094261;28;20039;-82
2021/06/19 04:32:44;;;;;;;24.92;17.80;;;17.40;99.90;;;;;;5092285;28;19915;-79
2021/06/19 04:35:13;;;;;;;36.53;18.60;;;17.40;99.90;;;;;;5092414;28;20454;-79
2021/06/19 04:37:38;;;;;;;42.35;19.40;;;17.30;99.90;;;;;;5093662;28;20023;-79
2021/06/19 04:42:37;;;;;;;37.35;19.75;;;17.30;99.90;;;;;;5093714;28;20044;-79
2021/06/19 04:45:05;;;;;;;40.75;21.55;;;17.20;99.90;;;;;;5091918;28;20039;-79
2021/06/19 04:47:33;;;;;;;43.10;21.67;;;17.20;99.90;;;;;;5092924;28;20073;-82
2021/06/19 04:50:00;;;;;;;44.53;19.98;;;17.30;99.90;;;;;;5093491;28;20482;-82
2021/06/19 04:52:29;;;;;;;39.47;20.33;;;17.20;99.90;;;;;;5092764;28;20027;-79
2021/06/19 04:54:55;;;;;;;36.80;18.98;;;17.20;99.90;;;;;;5093107;28;20440;-82
2021/06/19 04:57:22;;;;;;;39.22;20.40;;;17.20;99.90;;;;;;5093064;28;20081;-80
2021/06/19 04:59:48;;;;;;;36.25;20.17;;;17.20;99.90;;;;;;5093195;28;20085;-79
2021/06/19 05:02:15;;;;;;;33.65;20.25;;;17.10;99.90;;;;;;5093340;28;20024;-80
2021/06/19 05:04:41;;;;;;;39.95;21.05;;;17.10;99.90;;;;;;5093275;28;20028;-83
2021/06/19 05:07:06;;;;;;;34.92;20.00;;;17.20;99.90;;;;;;5093084;28;20082;-80
2021/06/19 05:09:32;;;;;;;36.90;20.60;;;17.10;99.90;;;;;;5093441;28;20525;-80
2021/06/19 05:11:58;;;;;;;33.42;20.13;;;17.10;99.90;;;;;;5093545;28;20024;-80
2021/06/19 05:14:23;;;;;;;40.25;19.60;;;17.10;99.90;;;;;;5092228;28;20031;-80
2021/06/19 05:16:49;;;;;;;38.55;21.05;;;17.10;99.90;;;;;;5090652;28;20028;-80
2021/06/19 05:19:17;;;;;;;35.67;21.20;;;17.20;99.90;;;;;;5092469;28;20035;-82
2021/06/19 05:21:43;;;;;;;40.42;21.73;;;17.20;99.90;;;;;;5093024;28;20042;-82
2021/06/19 05:24:11;;;;;;;33.58;20.33;;;17.20;99.90;;;;;;5093040;28;20035;-79
2021/06/19 05:26:36;;;;;;;38.03;21.05;;;17.20;99.90;;;;;;5093130;28;20024;-79
2021/06/19 05:29:02;;;;;;;35.60;22.45;;;17.20;99.90;;;;;;5092345;28;20035;-82
2021/06/19 05:31:28;;;;;;;36.75;20.67;;;17.20;99.90;;;;;;5092630;28;20032;-79
2021/06/19 05:33:53;;;;;;;39.25;20.92;;;17.20;99.90;;;;;;5092570;28;20039;-79
2021/06/19 05:36:19;;;;;;;39.03;19.92;;;17.20;99.90;;;;;;5091540;28;20044;-79
2021/06/19 05:38:45;;;;;;;33.20;21.55;;;17.20;99.90;;;;;;5092587;28;20031;-79
2021/06/19 05:41:11;;;;;;;37.42;20.77;;;17.30;99.90;;;;;;5089947;28;20028;-82
2021/06/19 05:43:36;;;;;;;34.00;21.17;;;17.40;99.90;;;;;;5092663;28;20024;-80
2021/06/19 05:46:02;;;;;;;28.85;18.60;;;17.50;99.90;;;;;;5091261;28;20036;-81
2021/06/19 05:48:28;;;;;;;33.38;21.33;;;17.50;99.90;;;;;;5092206;28;20035;-78
2021/06/19 05:50:54;;;;;;;28.75;17.65;;;17.70;99.90;;;;;;5092563;28;20395;-78
2021/06/19 05:53:20;;;;;;;32.35;17.85;;;17.80;99.90;;;;;;5092505;28;20542;-79
2021/06/19 05:55:46;;;;;;;25.77;16.25;;;18.00;99.90;;;;;;5092892;28;20051;-79
2021/06/19 05:58:12;;;;;;;20.88;15.48;;;18.20;99.90;;;;;;5092597;28;20028;-82
2021/06/19 06:00:38;;;;;;;25.95;14.50;;;18.30;99.90;;;;;;5092401;28;20020;-79
2021/06/19 06:03:04;;;;;;;25.95;13.15;;;18.50;99.90;;;;;;5092346;28;20027;-78
2021/06/19 06:05:30;;;;;;;23.45;12.38;;;18.70;99.90;;;;;;5092463;28;20020;-78
2021/06/19 06:07:56;;;;;;;14.68;10.63;;;18.80;99.90;;;;;;5092493;28;20024;-82
2021/06/19 06:10:22;;;;;;;16.20;10.70;;;18.80;99.90;;;;;;5092385;28;20513;-82
2021/06/19 06:12:48;;;;;;;17.38;10.60;;;18.70;99.90;;;;;;5092021;28;20047;-82
2021/06/19 06:15:14;;;;;;;15.05;9.88;;;18.70;99.90;;;;;;5091553;28;20032;-78
2021/06/19 06:17:39;;;;;;;18.70;10.32;;;18.70;99.90;;;;;;5092278;28;20487;-78
2021/06/19 06:20:06;;;;;;;23.27;10.50;;;18.70;99.90;;;;;;5091959;28;20024;-78
2021/06/19 06:22:32;;;;;;;16.13;9.75;;;18.80;99.90;;;;;;5092378;28;20158;-78
2021/06/19 06:24:58;;;;;;;21.90;10.70;;;18.90;99.90;;;;;;5092410;28;20103;-81
2021/06/19 06:27:23;;;;;;;20.48;9.48;;;19.10;99.90;;;;;;5094547;28;20070;-81
2021/06/19 06:29:49;;;;;;;19.77;10.25;;;19.00;99.90;;;;;;5095844;28;20039;-77
2021/06/19 06:32:15;;;;;;;18.58;9.60;;;19.10;99.90;;;;;;5095771;28;20052;-77
2021/06/19 06:34:41;;;;;;;16.33;8.40;;;19.30;99.90;;;;;;5094747;28;20036;-78
2021/06/19 06:37:07;;;;;;;24.00;8.25;;;19.40;99.90;;;;;;5096065;28;20081;-78
2021/06/19 06:39:33;;;;;;;17.70;8.27;;;19.30;99.90;;;;;;5094881;28;20440;-81
2021/06/19 06:42:00;;;;;;;19.40;7.88;;;19.30;99.90;;;;;;5094037;28;20012;-77
2021/06/19 06:44:27;;;;;;;16.20;7.75;;;19.40;99.90;;;;;;5095747;28;20073;-81
2021/06/19 06:46:52;;;;;;;12.82;7.30;;;19.60;99.90;;;;;;5095477;28;20618;-78
2021/06/19 06:49:18;;;;;;;17.20;6.70;;;19.80;99.90;;;;;;5095931;28;20028;-81
2021/06/19 06:51:44;;;;;;;11.57;6.20;;;20.10;99.90;;;;;;5095603;28;20024;-78
2021/06/19 06:54:10;;;;;;;11.23;5.45;;;20.50;99.90;;;;;;5095724;28;20397;-81
2021/06/19 06:56:35;;;;;;;9.63;4.60;;;20.90;99.90;;;;;;5095797;28;20390;-77
2021/06/19 06:59:01;;;;;;;10.52;4.70;;;20.90;99.90;;;;;;5095546;28;20471;-81
2021/06/19 07:01:27;;;;;;;9.10;4.68;;;21.00;99.90;;;;;;5095447;28;20056;-81
2021/06/19 07:03:56;;;;;;;6.20;4.07;;;21.20;99.90;;;;;;5095726;28;20036;-77
2021/06/19 07:06:22;;;;;;;8.02;4.55;;;21.20;99.90;;;;;;5095471;28;20020;-80
2021/06/19 07:08:48;;;;;;;9.00;5.03;;;21.20;99.90;;;;;;5095528;28;20158;-77
2021/06/19 07:11:14;;;;;;;11.30;4.53;;;21.20;99.90;;;;;;5093889;28;20107;-80
2021/06/19 07:13:40;;;;;;;12.57;4.28;;;21.50;99.90;;;;;;5094621;28;20028;-80
2021/06/19 07:16:07;;;;;;;10.32;4.55;;;21.70;99.90;;;;;;5094941;28;20031;-80
2021/06/19 07:18:32;;;;;;;7.07;4.00;;;21.60;99.90;;;;;;5095012;28;20478;-80
2021/06/19 07:20:58;;;;;;;8.02;4.28;;;21.50;99.90;;;;;;5095194;28;20020;-77
2021/06/19 07:23:25;;;;;;;13.30;4.25;;;21.40;99.90;;;;;;5094900;28;20089;-80
2021/06/19 07:25:53;;;;;;;9.00;4.28;;;21.30;99.90;;;;;;5095385;28;20086;-80
2021/06/19 07:28:18;;;;;;;8.32;4.30;;;21.20;99.90;;;;;;5094944;28;20023;-77
2021/06/19 07:30:44;;;;;;;14.27;4.28;;;21.10;99.90;;;;;;5094732;28;20028;-79
2021/06/19 07:33:10;;;;;;;6.95;4.00;;;21.00;99.90;;;;;;5094484;28;20077;-78
2021/06/19 07:35:35;;;;;;;7.20;4.32;;;20.90;99.90;;;;;;5094931;28;20028;-78
2021/06/19 07:38:01;;;;;;;8.93;4.15;;;20.90;99.90;;;;;;5094212;28;20020;-80
2021/06/19 07:40:27;;;;;;;10.52;4.22;;;21.00;99.90;;;;;;5094801;28;20020;-78
2021/06/19 07:42:52;;;;;;;7.20;3.85;;;21.00;99.90;;;;;;5093106;28;20394;-80
2021/06/19 07:45:18;;;;;;;8.05;4.10;;;20.90;99.90;;;;;;5094402;28;20032;-80
2021/06/19 07:47:44;;;;;;;10.07;4.28;;;20.90;99.90;;;;;;5094288;28;20032;-79
2021/06/19 07:50:10;;;;;;;7.57;4.40;;;20.80;99.90;;;;;;5094630;28;20111;-79
2021/06/19 07:52:36;;;;;;;6.93;4.32;;;20.70;99.90;;;;;;5094339;28;20042;-79
2021/06/19 07:55:03;;;;;;;9.98;3.97;;;20.70;99.90;;;;;;5094607;28;20024;-81
2021/06/19 07:57:29;;;;;;;11.32;4.40;;;20.70;99.90;;;;;;5093764;28;20578;-81
2021/06/19 07:59:55;;;;;;;12.93;4.30;;;20.60;99.90;;;;;;5094460;28;20020;-79
2021/06/19 08:02:20;;;;;;;10.48;4.78;;;20.60;99.90;;;;;;5093176;28;20407;-81
2021/06/19 08:04:46;;;;;;;11.15;5.22;;;20.60;99.90;;;;;;5094373;28;20028;-80
2021/06/19 08:07:12;;;;;;;8.13;4.93;;;20.60;99.90;;;;;;5094229;28;20368;-81
2021/06/19 08:09:38;;;;;;;9.88;4.65;;;20.50;99.90;;;;;;5094498;28;20055;-81
2021/06/19 08:12:04;;;;;;;11.70;5.15;;;20.50;99.90;;;;;;5094316;28;20372;-80
2021/06/19 08:14:30;;;;;;;14.00;5.90;;;20.50;99.90;;;;;;5092727;28;20020;-79
2021/06/19 08:16:58;;;;;;;12.45;5.50;;;20.50;99.90;;;;;;5093690;28;20020;-79
2021/06/19 08:19:24;;;;;;;10.05;5.53;;;20.60;99.90;;;;;;5093944;28;20538;-82
2021/06/19 08:21:51;;;;;;;10.75;5.93;;;20.80;99.90;;;;;;5093942;28;20108;-81
2021/06/19 08:24:16;;;;;;;9.73;6.47;;;20.80;99.90;;;;;;5093792;28;20098;-81
2021/06/19 08:26:43;;;;;;;12.13;7.10;;;20.70;99.90;;;;;;5094118;28;20051;-81
2021/06/19 08:29:10;;;;;;;13.93;6.80;;;20.70;99.90;;;;;;5093661;28;20371;-80
2021/06/19 08:31:38;;;;;;;12.10;6.28;;;20.70;99.90;;;;;;5093714;28;20047;-81
2021/06/19 08:34:06;;;;;;;9.60;5.63;;;20.90;99.90;;;;;;5093514;28;20088;-81
2021/06/19 08:36:32;;;;;;;11.45;6.10;;;21.20;99.90;;;;;;5093732;28;20024;-80
2021/06/19 08:38:59;;;;;;;13.95;6.35;;;21.20;99.90;;;;;;5093798;28;20076;-81
2021/06/19 08:41:24;;;;;;;8.65;5.00;;;21.40;99.90;;;;;;5093658;28;20020;-81
2021/06/19 08:43:50;;;;;;;11.75;5.35;;;22.80;99.90;;;;;;5091821;28;20158;-81
2021/06/19 08:46:23;;;;;;;8.38;4.20;;;24.10;99.90;;;;;;5093603;28;20099;-82
2021/06/19 08:48:50;;;;;;;;;;;25.80;99.90;;;;;;5093815;28;20024;-81
2021/06/19 08:51:17;;;;;;;6.93;4.38;;;26.10;99.90;;;;;;5092304;28;20052;-81
2021/06/19 08:53:43;;;;;;;10.98;4.30;;;24.60;99.90;;;;;;5093471;28;20020;-81
2021/06/19 08:56:09;;;;;;;14.10;4.50;;;24.10;99.90;;;;;;5093343;28;20498;-80
2021/06/19 08:58:34;;;;;;;10.75;5.10;;;23.40;99.90;;;;;;5093072;28;20386;-81
2021/06/19 09:01:00;;;;;;;13.10;6.05;;;23.00;99.90;;;;;;5092263;28;20046;-81
2021/06/19 09:03:28;;;;;;;9.40;5.05;;;22.60;99.90;;;;;;5093373;28;20099;-81
2021/06/19 09:06:20;;;;;;;11.07;5.47;;;22.30;99.90;;;;;;5093086;28;20032;-80
2021/06/19 09:09:04;;;;;;;6.75;4.95;;;21.90;99.90;;;;;;5093255;28;20440;-81
2021/06/19 09:11:45;;;;;;;11.65;5.75;;;21.80;99.90;;;;;;5092638;28;20032;-80
2021/06/19 09:14:16;;;;;;;10.85;5.53;;;21.50;99.90;;;;;;5091586;28;20027;-81
2021/06/19 09:16:43;;;;;;;13.75;6.00;;;21.20;99.90;;;;;;5092906;28;20028;-82
2021/06/19 09:19:25;;;;;;;14.02;5.95;;;20.90;99.90;;;;;;5091210;28;20030;-80
2021/06/19 09:22:21;;;;;;;9.80;5.68;;;20.70;99.90;;;;;;5092985;28;20103;-80
2021/06/19 09:24:57;;;;;;;13.02;6.35;;;20.50;99.90;;;;;;5091161;28;20028;-82
2021/06/19 09:27:34;;;;;;;11.25;6.57;;;20.20;99.90;;;;;;5092631;28;20220;-81
2021/06/19 09:30:16;;;;;;;16.35;7.15;;;20.00;99.90;;;;;;5092729;28;20035;-81
2021/06/19 09:32:46;;;;;;;12.07;6.97;;;20.00;99.90;;;;;;5092602;28;20429;-79
2021/06/19 09:35:29;;;;;;;18.27;9.40;;;19.70;99.90;;;;;;5092495;28;20483;-81
2021/06/19 09:37:59;;;;;;;63.40;13.45;;;19.60;99.90;;;;;;5091083;28;20024;-82
2021/06/19 09:40:29;;;;;;;21.45;11.40;;;19.60;99.90;;;;;;5092110;28;20020;-81
2021/06/19 09:43:13;;;;;;;18.05;10.65;;;19.60;99.90;;;;;;5089811;28;20472;-78
2021/06/19 09:45:42;;;;;;;16.67;11.40;;;19.70;99.90;;;;;;5092136;28;20047;-78
2021/06/19 09:48:23;;;;;;;19.55;11.32;;;19.70;99.90;;;;;;5092071;28;20020;-80
2021/06/19 09:51:12;;;;;;;15.23;10.38;;;19.70;99.90;;;;;;5092619;28;20031;-80
2021/06/19 09:53:39;;;;;;;20.08;10.35;;;19.70;99.90;;;;;;5085869;28;20602;-78
2021/06/19 09:56:06;;;;;;;17.40;10.40;;;19.60;99.90;;;;;;5092496;28;20020;-78
2021/06/19 09:58:43;;;;;;;15.82;10.23;;;19.40;99.90;;;;;;5092325;28;20023;-79
2021/06/19 10:01:10;;;;;;;33.85;11.98;;;19.30;99.90;;;;;;5092805;28;20084;-80
2021/06/19 10:03:54;;;;;;;19.10;11.10;;;19.30;99.90;;;;;;5096817;28;20028;-78
2021/06/19 10:06:20;;;;;;;17.85;12.40;;;19.20;99.90;;;;;;5096469;28;20020;-80
2021/06/19 10:08:47;;;;;;;32.65;15.10;;;19.20;99.90;;;;;;5096416;28;20543;-80
2021/06/19 10:11:14;;;;;;;22.58;14.55;;;19.20;99.90;;;;;;5095137;28;20047;-79
2021/06/19 10:13:42;;;;;;;16.33;13.00;;;19.40;99.90;;;;;;5095730;28;20081;-80
2021/06/19 10:16:10;;;;;;;19.77;11.65;;;19.50;99.90;;;;;;5096475;28;20056;-80
2021/06/19 10:18:38;;;;;;;18.60;11.95;;;19.70;99.90;;;;;;5098125;28;20383;-79
2021/06/19 10:21:05;;;;;;;13.40;9.90;;;19.80;99.90;;;;;;5096275;28;20047;-79
2021/06/19 10:23:32;;;;;;;18.95;11.73;;;19.70;99.90;;;;;;5095087;28;20482;-79
2021/06/19 10:25:58;;;;;;;18.95;12.00;;;19.70;99.90;;;;;;5096508;28;20024;-79
2021/06/19 10:28:25;;;;;;;22.33;13.27;;;19.80;99.90;;;;;;5095291;28;20402;-79
2021/06/19 10:30:51;;;;;;;16.35;11.30;;;20.10;99.90;;;;;;5098684;28;20035;-80
2021/06/19 10:33:32;;;;;;;15.32;9.82;;;20.40;99.90;;;;;;5095806;28;20506;-80
2021/06/19 10:36:03;;;;;;;12.35;8.65;;;20.50;99.90;;;;;;5096248;28;20110;-80
2021/06/19 10:38:30;;;;;;;13.50;7.45;;;20.40;99.90;;;;;;5092874;28;20128;-81
2021/06/19 10:41:03;;;;;;;17.10;9.80;;;20.20;99.90;;;;;;5094209;28;20401;-81
2021/06/19 10:43:31;;;;;;;14.73;8.52;;;20.00;99.90;;;;;;5093467;28;20028;-81
2021/06/19 10:46:35;;;;;;;17.70;8.65;;;20.00;99.90;;;;;;5096021;28;20043;-81
2021/06/19 10:49:22;;;;;;;12.60;7.90;;;20.00;99.90;;;;;;5095481;28;20055;-81
2021/06/19 10:51:48;;;;;;;19.13;8.55;;;19.90;99.90;;;;;;5095709;28;20028;-81
2021/06/19 10:54:21;;;;;;;16.10;9.25;;;19.80;99.90;;;;;;5095473;28;20028;-81
2021/06/19 10:56:53;;;;;;;18.23;10.85;;;19.80;99.90;;;;;;5095858;28;20028;-80
2021/06/19 10:59:26;;;;;;;14.57;10.15;;;19.80;99.90;;;;;;5094394;28;20412;-82
2021/06/19 11:01:53;;;;;;;;;;;19.90;99.90;;;;;;5096224;28;20551;-80
2021/06/19 11:04:38;;;;;;;21.75;11.25;;;20.00;99.90;;;;;;5095567;28;19904;-79
2021/06/19 11:07:23;;;;;;;15.52;11.52;;;20.30;99.90;;;;;;5095380;28;20020;-81
2021/06/19 11:09:49;;;;;;;20.02;11.20;;;20.50;99.90;;;;;;5094137;28;20036;-81
2021/06/19 11:12:32;;;;;;;9.90;7.72;;;20.40;99.90;;;;;;5094076;28;20020;-79
2021/06/19 11:15:08;;;;;;;19.63;7.70;;;20.30;99.90;;;;;;5094019;28;20028;-79
2021/06/19 11:17:33;;;;;;;17.15;7.00;;;20.10;99.90;;;;;;5093632;28;20052;-79
2021/06/19 11:20:25;;;;;;;24.33;7.22;;;19.90;99.90;;;;;;5095217;28;20584;-81
2021/06/19 11:22:54;;;;;;;24.73;6.50;;;19.70;99.90;;;;;;5088371;28;20118;-82
2021/06/19 11:25:35;;;;;;;26.60;7.78;;;19.60;99.90;;;;;;5095147;28;20024;-79
2021/06/19 11:28:04;;;;;;;18.83;6.90;;;19.50;99.90;;;;;;5094223;28;20584;-81
2021/06/19 11:33:26;;;;;;;16.17;5.03;;;19.40;99.90;;;;;;5095205;28;20052;-81
2021/06/19 11:36:02;;;;;;;18.90;5.55;;;19.20;99.90;;;;;;5095128;28;20036;-81
2021/06/19 11:38:51;;;;;;;12.25;5.18;;;19.30;99.90;;;;;;5094961;28;20021;-82
2021/06/19 11:41:28;;;;;;;18.17;5.40;;;19.60;99.90;;;;;;5094636;28;20024;-79
2021/06/19 11:43:54;;;;;;;16.33;4.57;;;19.80;99.90;;;;;;5092629;28;20024;-81
2021/06/19 11:46:21;;;;;;;16.88;4.60;;;19.90;99.90;;;;;;5093840;28;20398;-81
2021/06/19 11:49:01;;;;;;;10.35;3.72;;;19.80;99.90;;;;;;5094415;28;20023;-81
2021/06/19 11:51:28;;;;;;;14.23;4.57;;;19.70;99.90;;;;;;5094366;28;20020;-81
2021/06/19 11:53:55;;;;;;;11.75;3.97;;;19.70;99.90;;;;;;5094545;28;20031;-79
2021/06/19 11:56:25;;;;;;;13.30;4.07;;;19.70;99.90;;;;;;5094507;28;20047;-79
2021/06/19 11:58:54;;;;;;;8.68;3.60;;;19.70;99.90;;;;;;5093365;28;20031;-81
2021/06/19 12:01:34;;;;;;;12.27;4.15;;;19.70;99.90;;;;;;5094335;28;20024;-80
2021/06/19 12:04:05;;;;;;;9.25;4.60;;;19.60;99.90;;;;;;5094535;28;20019;-80
2021/06/19 12:06:38;;;;;;;10.55;5.75;;;19.60;99.90;;;;;;5094369;28;20023;-80
2021/06/19 12:09:06;;;;;;;7.38;4.95;;;19.60;99.90;;;;;;5094255;28;20024;-78
2021/06/19 12:11:38;;;;;;;6.35;3.85;;;19.60;99.90;;;;;;5093885;28;20028;-80
2021/06/19 12:14:28;;;;;;;6.30;4.07;;;19.60;99.90;;;;;;5093203;28;20105;-80
2021/06/19 12:16:58;;;;;;;5.97;3.90;;;19.70;99.90;;;;;;5093873;28;20081;-78
2021/06/19 12:19:25;;;;;;;11.20;4.65;;;19.70;99.90;;;;;;5093906;28;20517;-78
2021/06/19 12:21:55;;;;;;;10.55;4.95;;;19.70;99.90;;;;;;5093658;28;20054;-78
2021/06/19 12:24:24;;;;;;;7.78;5.00;;;19.70;99.90;;;;;;5093681;28;20040;-81
2021/06/19 12:27:00;;;;;;;7.30;4.28;;;19.70;99.90;;;;;;5094156;28;20028;-81
2021/06/19 12:29:44;;;;;;;4.07;3.67;;;19.70;99.90;;;;;;5092440;28;20490;-80
2021/06/19 12:32:41;;;;;;;7.50;3.78;;;19.60;99.90;;;;;;5091977;28;20581;-77
2021/06/19 12:35:10;;;;;;;3.88;3.58;;;19.40;99.90;;;;;;5093504;28;20499;-77
2021/06/19 12:37:41;;;;;;;4.45;3.88;;;19.30;99.90;;;;;;5093848;28;20028;-79
2021/06/19 12:40:12;;;;;;;5.68;3.60;;;19.30;99.90;;;;;;5093671;28;20016;-77
2021/06/19 12:42:48;;;;;;;3.20;2.90;;;19.50;99.90;;;;;;5093143;28;20020;-79
2021/06/19 12:45:31;;;;;;;3.83;3.15;;;19.70;99.90;;;;;;5091765;28;20103;-77
2021/06/19 12:47:57;;;;;;;5.55;3.20;;;20.20;99.90;;;;;;5093275;28;20511;-79